sensor_id;sensor_type;location;lat;lon;timestamp;pressure;altitude;pressure_sealevel;temperature;humidity
20628;BME280;10473;42.734;24.258;2023-08-07T00:02:08;91387.47;;;18.45;68.17
20628;BME280;10473;42.734;24.258;2023-08-07T00:04:35;91388.97;;;18.46;68.04
20628;BME280;10473;42.734;24.258;2023-08-07T00:07:03;91385.13;;;18.47;68.51
20628;BME280;10473;42.734;24.258;2023-08-07T00:09:32;91368.03;;;18.41;68.48
20628;BME280;10473;42.734;24.258;2023-08-07T00:12:00;91378.81;;;18.53;68.53
20628;BME280;10473;42.734;24.258;2023-08-07T00:14:28;91373.44;;;18.53;68.35
20628;BME280;10473;42.734;24.258;2023-08-07T00:16:55;91381.47;;;18.53;68.01
20628;BME280;10473;42.734;24.258;2023-08-07T00:19:23;91375.47;;;18.49;68.63
20628;BME280;10473;42.734;24.258;2023-08-07T00:21:51;91375.47;;;18.49;69.13
20628;BME280;10473;42.734;24.258;2023-08-07T00:24:18;91376.75;;;18.45;68.38
20628;BME280;10473;42.734;24.258;2023-08-07T00:26:47;91381.34;;;18.44;69.37
20628;BME280;10473;42.734;24.258;2023-08-07T00:29:18;91369.84;;;18.44;68.41
20628;BME280;10473;42.734;24.258;2023-08-07T00:31:45;91372.88;;;18.46;69.19
20628;BME280;10473;42.734;24.258;2023-08-07T00:34:14;91374.06;;;18.45;68.33
20628;BME280;10473;42.734;24.258;2023-08-07T00:36:43;91373.72;;;18.43;68.35
20628;BME280;10473;42.734;24.258;2023-08-07T00:39:11;91368.47;;;18.39;68.64
20628;BME280;10473;42.734;24.258;2023-08-07T00:41:40;91378.00;;;18.40;69.02
20628;BME280;10473;42.734;24.258;2023-08-07T00:44:10;91381.44;;;18.41;68.64
20628;BME280;10473;42.734;24.258;2023-08-07T00:46:38;91396.78;;;18.40;68.48
20628;BME280;10473;42.734;24.258;2023-08-07T00:49:07;91384.25;;;18.37;68.43
20628;BME280;10473;42.734;24.258;2023-08-07T00:51:36;91397.66;;;18.37;69.04
20628;BME280;10473;42.734;24.258;2023-08-07T00:54:05;91392.97;;;18.25;69.75
20628;BME280;10473;42.734;24.258;2023-08-07T00:56:35;91412.31;;;18.33;69.81
20628;BME280;10473;42.734;24.258;2023-08-07T00:59:02;91413.00;;;18.37;69.54
20628;BME280;10473;42.734;24.258;2023-08-07T01:01:32;91404.63;;;18.35;69.08
20628;BME280;10473;42.734;24.258;2023-08-07T01:04:00;91400.47;;;18.30;69.14
20628;BME280;10473;42.734;24.258;2023-08-07T01:06:28;91385.56;;;18.29;69.07
20628;BME280;10473;42.734;24.258;2023-08-07T01:08:56;91400.06;;;18.32;68.57
20628;BME280;10473;42.734;24.258;2023-08-07T01:11:34;91407.78;;;18.30;69.08
20628;BME280;10473;42.734;24.258;2023-08-07T01:14:11;91408.31;;;18.25;69.09
20628;BME280;10473;42.734;24.258;2023-08-07T01:16:45;91402.66;;;18.07;69.81
20628;BME280;10473;42.734;24.258;2023-08-07T01:19:19;91395.41;;;18.20;69.22
20628;BME280;10473;42.734;24.258;2023-08-07T01:22:03;91385.31;;;18.24;68.69
20628;BME280;10473;42.734;24.258;2023-08-07T01:24:31;91378.47;;;18.23;68.32
20628;BME280;10473;42.734;24.258;2023-08-07T01:27:05;91385.84;;;18.19;68.55
20628;BME280;10473;42.734;24.258;2023-08-07T01:29:38;91387.53;;;18.13;69.05
20628;BME280;10473;42.734;24.258;2023-08-07T01:32:09;91384.66;;;18.07;69.05
20628;BME280;10473;42.734;24.258;2023-08-07T01:34:41;91385.00;;;17.93;70.00
20628;BME280;10473;42.734;24.258;2023-08-07T01:37:12;91393.06;;;17.93;70.14
20628;BME280;10473;42.734;24.258;2023-08-07T01:39:41;91391.56;;;17.92;70.21
20628;BME280;10473;42.734;24.258;2023-08-07T01:42:09;91392.13;;;17.84;70.25
20628;BME280;10473;42.734;24.258;2023-08-07T01:44:37;91390.94;;;17.85;70.40
20628;BME280;10473;42.734;24.258;2023-08-07T01:47:05;91402.84;;;17.84;70.24
20628;BME280;10473;42.734;24.258;2023-08-07T01:49:33;91393.97;;;17.87;70.15
20628;BME280;10473;42.734;24.258;2023-08-07T01:52:01;91394.91;;;17.80;70.11
20628;BME280;10473;42.734;24.258;2023-08-07T01:54:30;91400.00;;;17.75;70.09
20628;BME280;10473;42.734;24.258;2023-08-07T01:56:58;91394.75;;;17.71;69.65
20628;BME280;10473;42.734;24.258;2023-08-07T01:59:25;91412.78;;;17.71;70.11
20628;BME280;10473;42.734;24.258;2023-08-07T02:01:53;91423.16;;;17.69;69.88
20628;BME280;10473;42.734;24.258;2023-08-07T02:04:21;91418.63;;;17.66;69.65
20628;BME280;10473;42.734;24.258;2023-08-07T02:06:48;91412.25;;;17.60;70.19
20628;BME280;10473;42.734;24.258;2023-08-07T02:09:16;91422.31;;;17.56;69.76
20628;BME280;10473;42.734;24.258;2023-08-07T02:11:45;91418.31;;;17.48;69.94
20628;BME280;10473;42.734;24.258;2023-08-07T02:14:13;91398.50;;;17.26;70.35
20628;BME280;10473;42.734;24.258;2023-08-07T02:16:41;91421.56;;;17.39;70.28
20628;BME280;10473;42.734;24.258;2023-08-07T02:19:08;91422.03;;;17.34;70.49
20628;BME280;10473;42.734;24.258;2023-08-07T02:21:36;91419.00;;;17.32;70.42
20628;BME280;10473;42.734;24.258;2023-08-07T02:24:04;91411.41;;;17.31;70.44
20628;BME280;10473;42.734;24.258;2023-08-07T02:26:32;91415.81;;;17.21;70.75
20628;BME280;10473;42.734;24.258;2023-08-07T02:29:01;91413.66;;;17.16;70.67
20628;BME280;10473;42.734;24.258;2023-08-07T02:31:32;91423.59;;;17.16;70.97
20628;BME280;10473;42.734;24.258;2023-08-07T02:33:59;91416.13;;;17.07;71.19
20628;BME280;10473;42.734;24.258;2023-08-07T02:36:27;91425.75;;;17.05;71.46
20628;BME280;10473;42.734;24.258;2023-08-07T02:38:55;91420.81;;;17.03;71.11
20628;BME280;10473;42.734;24.258;2023-08-07T02:41:23;91417.41;;;17.03;70.95
20628;BME280;10473;42.734;24.258;2023-08-07T02:43:50;91420.06;;;17.03;71.01
20628;BME280;10473;42.734;24.258;2023-08-07T02:46:19;91425.50;;;16.99;71.08
20628;BME280;10473;42.734;24.258;2023-08-07T02:48:47;91432.44;;;16.97;71.10
20628;BME280;10473;42.734;24.258;2023-08-07T02:51:14;91435.63;;;16.92;71.53
20628;BME280;10473;42.734;24.258;2023-08-07T02:53:43;91429.91;;;16.90;71.28
20628;BME280;10473;42.734;24.258;2023-08-07T02:56:11;91428.56;;;16.82;71.52
20628;BME280;10473;42.734;24.258;2023-08-07T02:58:38;91436.59;;;16.82;71.54
20628;BME280;10473;42.734;24.258;2023-08-07T03:01:06;91436.72;;;16.75;71.54
20628;BME280;10473;42.734;24.258;2023-08-07T03:03:35;91445.94;;;16.74;71.89
20628;BME280;10473;42.734;24.258;2023-08-07T03:06:03;91454.28;;;16.76;71.27
20628;BME280;10473;42.734;24.258;2023-08-07T03:08:31;91464.16;;;16.79;71.35
20628;BME280;10473;42.734;24.258;2023-08-07T03:10:59;91461.91;;;16.77;71.25
20628;BME280;10473;42.734;24.258;2023-08-07T03:13:27;91463.56;;;16.71;71.40
20628;BME280;10473;42.734;24.258;2023-08-07T03:16:01;91463.63;;;16.68;71.25
20628;BME280;10473;42.734;24.258;2023-08-07T03:18:29;91451.56;;;16.60;71.31
20628;BME280;10473;42.734;24.258;2023-08-07T03:20:59;91471.31;;;16.66;71.51
20628;BME280;10473;42.734;24.258;2023-08-07T03:23:27;91466.72;;;16.66;71.30
20628;BME280;10473;42.734;24.258;2023-08-07T03:26:04;91460.28;;;16.64;71.35
20628;BME280;10473;42.734;24.258;2023-08-07T03:28:33;91462.94;;;16.64;71.34
20628;BME280;10473;42.734;24.258;2023-08-07T03:31:01;91448.56;;;16.58;71.31
20628;BME280;10473;42.734;24.258;2023-08-07T03:33:32;91451.56;;;16.60;71.16
20628;BME280;10473;42.734;24.258;2023-08-07T03:36:04;91453.06;;;16.61;71.27
20628;BME280;10473;42.734;24.258;2023-08-07T03:38:33;91456.81;;;16.63;70.99
20628;BME280;10473;42.734;24.258;2023-08-07T03:41:01;91456.91;;;16.60;70.98
20628;BME280;10473;42.734;24.258;2023-08-07T03:43:30;91453.94;;;16.54;70.91
20628;BME280;10473;42.734;24.258;2023-08-07T03:45:58;91459.38;;;16.51;71.40
20628;BME280;10473;42.734;24.258;2023-08-07T03:48:25;91457.88;;;16.50;71.73
20628;BME280;10473;42.734;24.258;2023-08-07T03:51:01;91452.53;;;16.50;71.37
20628;BME280;10473;42.734;24.258;2023-08-07T03:53:31;91444.16;;;16.48;71.39
20628;BME280;10473;42.734;24.258;2023-08-07T03:55:59;91464.31;;;16.52;71.34
20628;BME280;10473;42.734;24.258;2023-08-07T03:58:27;91455.53;;;16.52;71.25
20628;BME280;10473;42.734;24.258;2023-08-07T04:00:55;91461.72;;;16.49;71.90
20628;BME280;10473;42.734;24.258;2023-08-07T04:03:23;91466.22;;;16.52;71.69
20628;BME280;10473;42.734;24.258;2023-08-07T04:05:52;91449.28;;;16.58;71.17
20628;BME280;10473;42.734;24.258;2023-08-07T04:08:22;91454.72;;;16.55;71.36
20628;BME280;10473;42.734;24.258;2023-08-07T04:11:02;91440.25;;;16.52;71.43
20628;BME280;10473;42.734;24.258;2023-08-07T04:13:31;91457.72;;;16.57;71.18
20628;BME280;10473;42.734;24.258;2023-08-07T04:15:59;91466.59;;;16.54;71.46
20628;BME280;10473;42.734;24.258;2023-08-07T04:18:29;91448.56;;;16.58;70.71
20628;BME280;10473;42.734;24.258;2023-08-07T04:20:58;91475.19;;;16.81;71.23
20628;BME280;10473;42.734;24.258;2023-08-07T04:23:26;91470.25;;;16.99;70.81
20628;BME280;10473;42.734;24.258;2023-08-07T04:25:57;91473.97;;;17.21;70.79
20628;BME280;10473;42.734;24.258;2023-08-07T04:28:27;91468.94;;;17.42;70.04
20628;BME280;10473;42.734;24.258;2023-08-07T04:30:55;91476.66;;;17.72;69.23
20628;BME280;10473;42.734;24.258;2023-08-07T04:33:23;91473.63;;;18.02;68.02
20628;BME280;10473;42.734;24.258;2023-08-07T04:35:51;91486.25;;;18.34;65.70
20628;BME280;10473;42.734;24.258;2023-08-07T04:38:19;91485.09;;;18.63;65.43
20628;BME280;10473;42.734;24.258;2023-08-07T04:40:48;91483.47;;;18.94;65.38
20628;BME280;10473;42.734;24.258;2023-08-07T04:43:18;91481.84;;;19.25;63.63
20628;BME280;10473;42.734;24.258;2023-08-07T04:45:48;91474.41;;;19.42;61.56
20628;BME280;10473;42.734;24.258;2023-08-07T04:48:16;91476.25;;;19.57;61.26
20628;BME280;10473;42.734;24.258;2023-08-07T04:50:47;91467.97;;;19.77;62.07
20628;BME280;10473;42.734;24.258;2023-08-07T04:53:14;91489.78;;;20.04;60.65
20628;BME280;10473;42.734;24.258;2023-08-07T04:55:43;91492.88;;;20.27;59.57
20628;BME280;10473;42.734;24.258;2023-08-07T04:58:12;91485.94;;;20.39;59.81
20628;BME280;10473;42.734;24.258;2023-08-07T05:00:40;91488.13;;;20.65;59.92
20628;BME280;10473;42.734;24.258;2023-08-07T05:03:09;91480.63;;;20.82;59.01
20628;BME280;10473;42.734;24.258;2023-08-07T05:05:36;91496.81;;;21.03;59.10
20628;BME280;10473;42.734;24.258;2023-08-07T05:08:04;91493.22;;;21.28;58.25
20628;BME280;10473;42.734;24.258;2023-08-07T05:10:32;91487.03;;;21.49;58.10
20628;BME280;10473;42.734;24.258;2023-08-07T05:12:59;91481.88;;;21.63;56.63
20628;BME280;10473;42.734;24.258;2023-08-07T05:15:27;91486.88;;;21.74;56.55
20628;BME280;10473;42.734;24.258;2023-08-07T05:17:57;91494.03;;;21.98;56.86
20628;BME280;10473;42.734;24.258;2023-08-07T05:20:26;91492.06;;;21.90;54.89
20628;BME280;10473;42.734;24.258;2023-08-07T05:22:53;91493.97;;;21.59;56.26
20628;BME280;10473;42.734;24.258;2023-08-07T05:25:22;91488.47;;;21.62;55.44
20628;BME280;10473;42.734;24.258;2023-08-07T05:27:49;91493.09;;;21.62;56.17
20628;BME280;10473;42.734;24.258;2023-08-07T05:30:17;91492.59;;;21.76;57.81
20628;BME280;10473;42.734;24.258;2023-08-07T05:32:45;91490.97;;;21.57;55.93
20628;BME280;10473;42.734;24.258;2023-08-07T05:35:12;91497.72;;;21.61;57.02
20628;BME280;10473;42.734;24.258;2023-08-07T05:37:41;91485.31;;;21.64;56.78
20628;BME280;10473;42.734;24.258;2023-08-07T05:40:09;91493.28;;;21.67;57.25
20628;BME280;10473;42.734;24.258;2023-08-07T05:42:38;91478.66;;;21.47;57.15
20628;BME280;10473;42.734;24.258;2023-08-07T05:45:07;91485.13;;;21.80;58.22
20628;BME280;10473;42.734;24.258;2023-08-07T05:47:36;91486.69;;;21.99;56.11
20628;BME280;10473;42.734;24.258;2023-08-07T05:50:06;91481.31;;;22.17;55.84
20628;BME280;10473;42.734;24.258;2023-08-07T05:52:34;91472.69;;;22.40;57.49
20628;BME280;10473;42.734;24.258;2023-08-07T05:55:03;91468.84;;;22.68;56.82
20628;BME280;10473;42.734;24.258;2023-08-07T05:57:31;91467.91;;;22.89;53.19
20628;BME280;10473;42.734;24.258;2023-08-07T05:59:58;91461.59;;;22.92;52.38
20628;BME280;10473;42.734;24.258;2023-08-07T06:02:26;91461.59;;;23.01;52.65
20628;BME280;10473;42.734;24.258;2023-08-07T06:04:54;91465.22;;;22.98;52.82
20628;BME280;10473;42.734;24.258;2023-08-07T06:07:21;91459.03;;;23.06;54.46
20628;BME280;10473;42.734;24.258;2023-08-07T06:09:49;91457.41;;;23.18;53.57
20628;BME280;10473;42.734;24.258;2023-08-07T06:12:18;91455.53;;;23.42;53.39
20628;BME280;10473;42.734;24.258;2023-08-07T06:14:46;91459.13;;;23.48;51.66
20628;BME280;10473;42.734;24.258;2023-08-07T06:17:13;91452.44;;;23.76;52.06
20628;BME280;10473;42.734;24.258;2023-08-07T06:19:41;91454.03;;;23.91;51.99
20628;BME280;10473;42.734;24.258;2023-08-07T06:22:09;91457.56;;;24.06;50.09
20628;BME280;10473;42.734;24.258;2023-08-07T06:24:36;91454.94;;;24.21;49.10
20628;BME280;10473;42.734;24.258;2023-08-07T06:27:05;91467.03;;;24.11;47.97
20628;BME280;10473;42.734;24.258;2023-08-07T06:29:34;91470.88;;;24.19;47.52
20628;BME280;10473;42.734;24.258;2023-08-07T06:32:01;91480.84;;;24.13;46.38
20628;BME280;10473;42.734;24.258;2023-08-07T06:34:29;91490.50;;;24.37;48.70
20628;BME280;10473;42.734;24.258;2023-08-07T06:36:57;91500.81;;;24.48;46.30
20628;BME280;10473;42.734;24.258;2023-08-07T06:39:24;91504.38;;;24.54;44.97
20628;BME280;10473;42.734;24.258;2023-08-07T06:41:52;91507.38;;;24.56;44.86
20628;BME280;10473;42.734;24.258;2023-08-07T06:44:25;91509.03;;;24.63;43.58
20628;BME280;10473;42.734;24.258;2023-08-07T06:46:54;91516.03;;;24.13;43.92
20628;BME280;10473;42.734;24.258;2023-08-07T06:49:22;91511.13;;;24.35;43.98
20628;BME280;10473;42.734;24.258;2023-08-07T06:51:50;91534.50;;;23.73;44.24
20628;BME280;10473;42.734;24.258;2023-08-07T06:54:17;91532.00;;;23.42;46.35
20628;BME280;10473;42.734;24.258;2023-08-07T06:56:45;91541.94;;;23.09;46.22
20628;BME280;10473;42.734;24.258;2023-08-07T06:59:13;91539.06;;;22.68;46.99
20628;BME280;10473;42.734;24.258;2023-08-07T07:01:40;91537.59;;;23.03;47.55
20628;BME280;10473;42.734;24.258;2023-08-07T07:04:09;91540.09;;;22.61;46.92
20628;BME280;10473;42.734;24.258;2023-08-07T07:06:37;91527.97;;;22.75;47.85
20628;BME280;10473;42.734;24.258;2023-08-07T07:09:05;91540.28;;;22.85;46.66
20628;BME280;10473;42.734;24.258;2023-08-07T07:11:34;91539.56;;;22.36;48.31
20628;BME280;10473;42.734;24.258;2023-08-07T07:14:01;91532.44;;;22.87;51.57
20628;BME280;10473;42.734;24.258;2023-08-07T07:16:29;91530.41;;;23.27;47.95
20628;BME280;10473;42.734;24.258;2023-08-07T07:18:57;91530.94;;;23.49;45.27
20628;BME280;10473;42.734;24.258;2023-08-07T07:21:27;91530.56;;;23.92;47.91
20628;BME280;10473;42.734;24.258;2023-08-07T07:23:55;91533.41;;;24.30;45.78
20628;BME280;10473;42.734;24.258;2023-08-07T07:26:23;91536.88;;;24.30;45.85
20628;BME280;10473;42.734;24.258;2023-08-07T07:28:50;91543.22;;;23.77;46.25
20628;BME280;10473;42.734;24.258;2023-08-07T07:31:19;91532.03;;;23.15;47.51
20628;BME280;10473;42.734;24.258;2023-08-07T07:33:48;91537.72;;;23.08;48.63
20628;BME280;10473;42.734;24.258;2023-08-07T07:36:17;91546.75;;;23.05;47.94
20628;BME280;10473;42.734;24.258;2023-08-07T07:38:47;91540.56;;;23.14;49.05
20628;BME280;10473;42.734;24.258;2023-08-07T07:41:15;91536.81;;;22.66;48.58
20628;BME280;10473;42.734;24.258;2023-08-07T07:43:44;91538.47;;;22.73;48.50
20628;BME280;10473;42.734;24.258;2023-08-07T07:46:13;91535.91;;;22.69;48.93
20628;BME280;10473;42.734;24.258;2023-08-07T07:48:40;91540.88;;;22.80;49.38
20628;BME280;10473;42.734;24.258;2023-08-07T07:51:08;91530.38;;;22.91;48.54
20628;BME280;10473;42.734;24.258;2023-08-07T07:53:36;91527.38;;;23.43;49.68
20628;BME280;10473;42.734;24.258;2023-08-07T07:56:05;91528.03;;;23.79;49.89
20628;BME280;10473;42.734;24.258;2023-08-07T07:58:33;91537.66;;;24.22;46.28
20628;BME280;10473;42.734;24.258;2023-08-07T08:01:05;91528.53;;;24.43;46.76
20628;BME280;10473;42.734;24.258;2023-08-07T08:03:35;91535.84;;;24.60;42.36
20628;BME280;10473;42.734;24.258;2023-08-07T08:06:03;91533.56;;;24.26;42.86
20628;BME280;10473;42.734;24.258;2023-08-07T08:08:31;91535.50;;;24.67;44.90
20628;BME280;10473;42.734;24.258;2023-08-07T08:11:00;91526.25;;;24.74;41.97
20628;BME280;10473;42.734;24.258;2023-08-07T08:13:30;91521.78;;;24.71;40.50
20628;BME280;10473;42.734;24.258;2023-08-07T08:15:57;91522.75;;;24.59;43.32
20628;BME280;10473;42.734;24.258;2023-08-07T08:18:26;91515.03;;;24.90;42.36
20628;BME280;10473;42.734;24.258;2023-08-07T08:20:55;91528.19;;;24.83;42.54
20628;BME280;10473;42.734;24.258;2023-08-07T08:23:23;91523.75;;;25.08;43.88
20628;BME280;10473;42.734;24.258;2023-08-07T08:25:51;91515.41;;;24.74;41.15
20628;BME280;10473;42.734;24.258;2023-08-07T08:28:19;91518.72;;;24.78;40.68
20628;BME280;10473;42.734;24.258;2023-08-07T08:30:49;91510.16;;;24.47;40.55
20628;BME280;10473;42.734;24.258;2023-08-07T08:33:17;91512.06;;;24.55;42.57
20628;BME280;10473;42.734;24.258;2023-08-07T08:35:44;91510.50;;;24.40;39.17
20628;BME280;10473;42.734;24.258;2023-08-07T08:38:12;91513.94;;;23.57;42.68
20628;BME280;10473;42.734;24.258;2023-08-07T08:40:41;91511.66;;;23.65;43.12
20628;BME280;10473;42.734;24.258;2023-08-07T08:43:15;91511.75;;;23.38;44.00
20628;BME280;10473;42.734;24.258;2023-08-07T08:45:44;91496.44;;;23.08;44.14
20628;BME280;10473;42.734;24.258;2023-08-07T08:48:19;91503.94;;;23.13;44.07
20628;BME280;10473;42.734;24.258;2023-08-07T08:50:49;91513.72;;;23.19;46.71
20628;BME280;10473;42.734;24.258;2023-08-07T08:53:20;91510.84;;;23.32;46.63
20628;BME280;10473;42.734;24.258;2023-08-07T08:55:49;91513.38;;;23.44;45.89
20628;BME280;10473;42.734;24.258;2023-08-07T08:58:17;91514.41;;;23.56;43.54
20628;BME280;10473;42.734;24.258;2023-08-07T09:00:47;91513.78;;;23.61;44.04
20628;BME280;10473;42.734;24.258;2023-08-07T09:03:20;91512.78;;;23.40;45.16
20628;BME280;10473;42.734;24.258;2023-08-07T09:05:49;91511.56;;;23.50;46.83
20628;BME280;10473;42.734;24.258;2023-08-07T09:08:21;91515.50;;;23.31;46.29
20628;BME280;10473;42.734;24.258;2023-08-07T09:10:50;91515.59;;;23.64;45.98
20628;BME280;10473;42.734;24.258;2023-08-07T09:13:22;91520.34;;;23.87;44.86
20628;BME280;10473;42.734;24.258;2023-08-07T09:15:51;91512.94;;;23.87;44.19
20628;BME280;10473;42.734;24.258;2023-08-07T09:18:21;91521.06;;;24.29;42.60
20628;BME280;10473;42.734;24.258;2023-08-07T09:20:49;91516.91;;;24.19;43.41
20628;BME280;10473;42.734;24.258;2023-08-07T09:23:17;91521.19;;;24.11;43.15
20628;BME280;10473;42.734;24.258;2023-08-07T09:25:46;91510.81;;;24.09;42.13
20628;BME280;10473;42.734;24.258;2023-08-07T09:28:15;91513.56;;;23.91;43.31
20628;BME280;10473;42.734;24.258;2023-08-07T09:30:43;91518.75;;;24.13;44.68
20628;BME280;10473;42.734;24.258;2023-08-07T09:33:11;91510.75;;;24.18;45.79
20628;BME280;10473;42.734;24.258;2023-08-07T09:35:40;91510.81;;;24.65;42.66
20628;BME280;10473;42.734;24.258;2023-08-07T09:38:08;91514.09;;;24.69;44.01
20628;BME280;10473;42.734;24.258;2023-08-07T09:40:36;91515.59;;;24.70;43.89
20628;BME280;10473;42.734;24.258;2023-08-07T09:43:03;91524.97;;;25.08;44.63
20628;BME280;10473;42.734;24.258;2023-08-07T09:45:32;91519.75;;;25.04;42.78
20628;BME280;10473;42.734;24.258;2023-08-07T09:48:04;91512.72;;;24.41;43.18
20628;BME280;10473;42.734;24.258;2023-08-07T09:50:33;91516.22;;;24.89;42.83
20628;BME280;10473;42.734;24.258;2023-08-07T09:53:02;91518.72;;;25.16;42.37
20628;BME280;10473;42.734;24.258;2023-08-07T09:55:30;91521.66;;;25.27;42.46
20628;BME280;10473;42.734;24.258;2023-08-07T09:58:01;91522.81;;;25.50;41.06
20628;BME280;10473;42.734;24.258;2023-08-07T10:00:33;91528.91;;;25.59;40.44
20628;BME280;10473;42.734;24.258;2023-08-07T10:03:01;91523.38;;;25.54;41.67
20628;BME280;10473;42.734;24.258;2023-08-07T10:05:31;91523.03;;;25.61;41.52
20628;BME280;10473;42.734;24.258;2023-08-07T10:07:59;91530.50;;;25.80;40.48
20628;BME280;10473;42.734;24.258;2023-08-07T10:10:28;91528.19;;;25.73;41.87
20628;BME280;10473;42.734;24.258;2023-08-07T10:12:56;91517.88;;;25.63;43.78
20628;BME280;10473;42.734;24.258;2023-08-07T10:15:28;91521.44;;;25.83;42.44
20628;BME280;10473;42.734;24.258;2023-08-07T10:17:56;91515.91;;;25.78;41.62
20628;BME280;10473;42.734;24.258;2023-08-07T10:20:27;91519.38;;;25.64;41.21
20628;BME280;10473;42.734;24.258;2023-08-07T10:22:57;91525.59;;;25.93;41.11
20628;BME280;10473;42.734;24.258;2023-08-07T10:25:29;91522.09;;;25.93;39.38
20628;BME280;10473;42.734;24.258;2023-08-07T10:27:57;91529.97;;;26.05;39.80
20628;BME280;10473;42.734;24.258;2023-08-07T10:30:27;91529.69;;;25.74;39.54
20628;BME280;10473;42.734;24.258;2023-08-07T10:32:57;91522.81;;;25.79;40.42
20628;BME280;10473;42.734;24.258;2023-08-07T10:35:25;91525.91;;;25.86;41.13
20628;BME280;10473;42.734;24.258;2023-08-07T10:38:05;91527.78;;;25.80;40.07
20628;BME280;10473;42.734;24.258;2023-08-07T10:40:59;91519.28;;;25.73;41.07
20628;BME280;10473;42.734;24.258;2023-08-07T10:43:27;91511.78;;;25.53;41.61
20628;BME280;10473;42.734;24.258;2023-08-07T10:46:02;91510.31;;;25.67;41.40
20628;BME280;10473;42.734;24.258;2023-08-07T10:48:30;91507.25;;;25.36;40.50
20628;BME280;10473;42.734;24.258;2023-08-07T10:51:05;91513.75;;;25.53;41.22
20628;BME280;10473;42.734;24.258;2023-08-07T10:53:34;91514.09;;;25.31;40.30
20628;BME280;10473;42.734;24.258;2023-08-07T10:56:04;91507.44;;;25.32;42.14
20628;BME280;10473;42.734;24.258;2023-08-07T10:58:35;91508.56;;;25.26;42.98
20628;BME280;10473;42.734;24.258;2023-08-07T11:01:20;91510.94;;;25.47;42.32
20628;BME280;10473;42.734;24.258;2023-08-07T11:03:49;91509.81;;;25.83;42.84
20628;BME280;10473;42.734;24.258;2023-08-07T11:06:20;91514.22;;;26.09;39.36
20628;BME280;10473;42.734;24.258;2023-08-07T11:08:50;91517.94;;;26.26;38.78
20628;BME280;10473;42.734;24.258;2023-08-07T11:11:19;91514.72;;;26.42;38.85
20628;BME280;10473;42.734;24.258;2023-08-07T11:13:46;91501.19;;;26.62;39.57
20628;BME280;10473;42.734;24.258;2023-08-07T11:16:14;91499.16;;;26.57;39.22
20628;BME280;10473;42.734;24.258;2023-08-07T11:18:42;91500.13;;;26.40;38.76
20628;BME280;10473;42.734;24.258;2023-08-07T11:21:11;91492.28;;;26.27;40.34
20628;BME280;10473;42.734;24.258;2023-08-07T11:23:39;91485.53;;;26.23;39.85
20628;BME280;10473;42.734;24.258;2023-08-07T11:26:08;91498.69;;;26.44;39.63
20628;BME280;10473;42.734;24.258;2023-08-07T11:28:38;91494.28;;;26.47;39.16
20628;BME280;10473;42.734;24.258;2023-08-07T11:31:06;91498.78;;;26.50;39.03
20628;BME280;10473;42.734;24.258;2023-08-07T11:33:36;91495.97;;;25.95;38.06
20628;BME280;10473;42.734;24.258;2023-08-07T11:36:10;91498.97;;;25.97;39.30
20628;BME280;10473;42.734;24.258;2023-08-07T11:38:41;91495.13;;;26.04;40.15
20628;BME280;10473;42.734;24.258;2023-08-07T11:41:11;91493.91;;;26.39;39.90
20628;BME280;10473;42.734;24.258;2023-08-07T11:43:41;91493.56;;;26.32;39.31
20628;BME280;10473;42.734;24.258;2023-08-07T11:46:12;91493.72;;;26.57;40.29
20628;BME280;10473;42.734;24.258;2023-08-07T11:48:42;91488.81;;;26.12;38.40
20628;BME280;10473;42.734;24.258;2023-08-07T11:51:10;91485.25;;;26.21;38.25
20628;BME280;10473;42.734;24.258;2023-08-07T11:53:40;91484.97;;;26.19;40.08
20628;BME280;10473;42.734;24.258;2023-08-07T11:56:09;91480.38;;;26.25;39.72
20628;BME280;10473;42.734;24.258;2023-08-07T11:58:39;91493.38;;;26.55;37.28
20628;BME280;10473;42.734;24.258;2023-08-07T12:01:10;91483.81;;;26.40;38.73
20628;BME280;10473;42.734;24.258;2023-08-07T12:03:42;91472.22;;;26.59;37.48
20628;BME280;10473;42.734;24.258;2023-08-07T12:06:10;91485.22;;;26.70;38.57
20628;BME280;10473;42.734;24.258;2023-08-07T12:08:39;91474.22;;;26.44;38.74
20628;BME280;10473;42.734;24.258;2023-08-07T12:11:08;91461.97;;;26.34;38.62
20628;BME280;10473;42.734;24.258;2023-08-07T12:13:37;91457.47;;;26.66;38.20
20628;BME280;10473;42.734;24.258;2023-08-07T12:16:07;91460.94;;;26.86;36.78
20628;BME280;10473;42.734;24.258;2023-08-07T12:18:36;91460.06;;;26.95;37.07
20628;BME280;10473;42.734;24.258;2023-08-07T12:21:07;91464.75;;;26.74;36.37
20628;BME280;10473;42.734;24.258;2023-08-07T12:23:36;91460.53;;;26.73;37.62
20628;BME280;10473;42.734;24.258;2023-08-07T12:26:05;91460.38;;;27.02;36.53
20628;BME280;10473;42.734;24.258;2023-08-07T12:28:34;91454.41;;;27.18;36.49
20628;BME280;10473;42.734;24.258;2023-08-07T12:31:02;91451.78;;;27.29;35.25
20628;BME280;10473;42.734;24.258;2023-08-07T12:33:31;91463.09;;;27.48;35.02
20628;BME280;10473;42.734;24.258;2023-08-07T12:35:59;91451.31;;;27.56;33.79
20628;BME280;10473;42.734;24.258;2023-08-07T12:38:28;91460.34;;;27.73;34.55
20628;BME280;10473;42.734;24.258;2023-08-07T12:40:56;91452.47;;;27.75;35.36
20628;BME280;10473;42.734;24.258;2023-08-07T12:43:23;91453.47;;;27.78;34.59
20628;BME280;10473;42.734;24.258;2023-08-07T12:45:51;91458.59;;;27.96;34.29
20628;BME280;10473;42.734;24.258;2023-08-07T12:48:20;91465.13;;;28.09;35.34
20628;BME280;10473;42.734;24.258;2023-08-07T12:50:49;91462.94;;;28.13;33.61
20628;BME280;10473;42.734;24.258;2023-08-07T12:53:17;91454.63;;;28.33;33.41
20628;BME280;10473;42.734;24.258;2023-08-07T12:55:45;91454.28;;;28.51;33.58
20628;BME280;10473;42.734;24.258;2023-08-07T12:58:12;91445.84;;;28.49;34.27
20628;BME280;10473;42.734;24.258;2023-08-07T13:00:41;91454.00;;;28.44;33.75